createdAt,value
2022-10-19T00:02:18.358Z,100.00
2022-10-19T00:04:45.032Z,100.00
2022-10-19T00:07:11.518Z,100.00
2022-10-19T00:09:37.994Z,100.00
2022-10-19T00:12:04.714Z,100.00
2022-10-19T00:14:31.299Z,100.00
2022-10-19T00:16:58.143Z,100.00
2022-10-19T00:19:26.627Z,100.00
2022-10-19T00:21:54.286Z,100.00
2022-10-19T00:24:21.328Z,100.00
2022-10-19T00:26:48.153Z,100.00
2022-10-19T00:29:15.222Z,100.00
2022-10-19T00:31:42.083Z,100.00
2022-10-19T00:34:09.154Z,100.00
2022-10-19T00:36:41.768Z,100.00
2022-10-19T00:39:13.243Z,100.00
2022-10-19T00:41:40.014Z,100.00
2022-10-19T00:44:28.179Z,100.00
2022-10-19T00:46:59.217Z,100.00
2022-10-19T00:49:33.216Z,100.00
2022-10-19T00:52:06.377Z,100.00
2022-10-19T00:54:36.383Z,100.00
2022-10-19T00:57:05.026Z,100.00
2022-10-19T00:59:32.712Z,100.00
2022-10-19T01:02:03.090Z,100.00
2022-10-19T01:04:30.783Z,100.00
2022-10-19T01:06:58.489Z,100.00
2022-10-19T01:09:27.801Z,100.00
2022-10-19T01:11:57.168Z,100.00
2022-10-19T01:14:46.811Z,100.00
2022-10-19T01:17:37.928Z,100.00
2022-10-19T01:20:28.627Z,100.00
2022-10-19T01:23:16.823Z,100.00
2022-10-19T01:26:20.239Z,100.00
2022-10-19T01:29:06.372Z,100.00
2022-10-19T01:31:35.829Z,100.00
2022-10-19T01:34:53.477Z,100.00
2022-10-19T01:37:34.349Z,100.00
2022-10-19T01:40:27.700Z,100.00
2022-10-19T01:43:09.005Z,100.00
2022-10-19T01:46:02.125Z,100.00
2022-10-19T01:48:32.376Z,100.00
2022-10-19T01:51:06.690Z,100.00
2022-10-19T01:53:40.251Z,100.00
2022-10-19T01:56:08.530Z,100.00
2022-10-19T01:58:42.835Z,100.00
2022-10-19T02:03:55.226Z,100.00
2022-10-19T02:06:22.213Z,100.00
2022-10-19T02:08:56.086Z,100.00
2022-10-19T02:11:23.349Z,100.00
2022-10-19T02:14:09.395Z,100.00
2022-10-19T02:16:44.750Z,100.00
2022-10-19T02:19:17.268Z,100.00
2022-10-19T02:21:43.759Z,100.00
2022-10-19T02:24:10.148Z,100.00
2022-10-19T02:26:37.610Z,100.00
2022-10-19T02:29:04.192Z,100.00
2022-10-19T02:31:30.654Z,100.00
2022-10-19T02:33:57.359Z,100.00
2022-10-19T02:36:29.299Z,100.00
2022-10-19T02:38:55.786Z,100.00
2022-10-19T02:41:31.477Z,100.00
2022-10-19T02:44:03.367Z,100.00
2022-10-19T02:46:42.256Z,100.00
2022-10-19T02:49:10.064Z,100.00
2022-10-19T02:51:43.989Z,100.00
2022-10-19T02:54:10.385Z,100.00
2022-10-19T02:56:36.775Z,100.00
2022-10-19T02:59:03.548Z,100.00
2022-10-19T03:01:30.173Z,100.00
2022-10-19T03:03:56.592Z,100.00
2022-10-19T03:06:22.982Z,100.00
2022-10-19T03:08:52.421Z,100.00
2022-10-19T03:11:18.866Z,100.00
2022-10-19T03:13:45.308Z,100.00
2022-10-19T03:16:13.280Z,100.00
2022-10-19T03:18:40.283Z,100.00
2022-10-19T03:21:15.954Z,100.00
2022-10-19T03:23:42.419Z,100.00
2022-10-19T03:26:14.765Z,100.00
2022-10-19T03:28:41.550Z,100.00
2022-10-19T03:31:08.396Z,100.00
2022-10-19T03:33:34.903Z,100.00
2022-10-19T03:36:20.971Z,100.00
2022-10-19T03:38:50.108Z,100.00
2022-10-19T03:41:16.567Z,100.00
2022-10-19T03:43:43.045Z,100.00
2022-10-19T03:46:09.518Z,100.00
2022-10-19T03:48:36.162Z,100.00
2022-10-19T03:51:08.294Z,100.00
2022-10-19T03:53:44.205Z,100.00
2022-10-19T03:56:19.041Z,100.00
2022-10-19T03:58:49.742Z,100.00
2022-10-19T04:01:17.527Z,100.00
2022-10-19T04:03:44.606Z,100.00
2022-10-19T04:06:21.153Z,100.00
2022-10-19T04:08:49.821Z,100.00
2022-10-19T04:11:18.321Z,100.00
2022-10-19T04:13:44.711Z,100.00
2022-10-19T04:16:13.932Z,100.00
2022-10-19T04:18:40.397Z,100.00
2022-10-19T04:21:30.933Z,100.00
2022-10-19T04:24:03.097Z,100.00
2022-10-19T04:26:49.793Z,100.00
2022-10-19T04:29:18.902Z,100.00
2022-10-19T04:32:05.637Z,100.00
2022-10-19T04:34:33.330Z,100.00
2022-10-19T04:37:04.669Z,100.00
2022-10-19T04:39:31.111Z,100.00
2022-10-19T04:41:57.573Z,100.00
2022-10-19T04:46:50.333Z,100.00
2022-10-19T04:49:19.494Z,100.00
2022-10-19T04:51:46.797Z,100.00
2022-10-19T04:54:13.230Z,100.00
2022-10-19T04:56:40.017Z,100.00
2022-10-19T04:59:10.530Z,100.00
2022-10-19T05:01:37.162Z,100.00
2022-10-19T05:04:03.951Z,100.00
2022-10-19T05:06:31.491Z,100.00
2022-10-19T05:08:58.642Z,100.00
2022-10-19T05:11:25.560Z,100.00
2022-10-19T05:13:52.022Z,100.00
2022-10-19T05:16:23.246Z,100.00
2022-10-19T05:18:51.535Z,100.00
2022-10-19T05:21:18.860Z,100.00
2022-10-19T05:23:45.654Z,100.00
2022-10-19T05:26:17.795Z,100.00
2022-10-19T05:29:04.863Z,100.00
2022-10-19T05:31:33.283Z,100.00
2022-10-19T05:34:00.807Z,100.00
2022-10-19T05:36:32.261Z,100.00
2022-10-19T05:39:01.655Z,100.00
2022-10-19T05:41:28.347Z,100.00
2022-10-19T05:43:59.703Z,100.00
2022-10-19T05:46:28.570Z,100.00
2022-10-19T05:48:56.879Z,100.00
2022-10-19T05:51:24.428Z,100.00
2022-10-19T05:53:52.993Z,100.00
2022-10-19T05:56:22.327Z,100.00
2022-10-19T05:58:49.493Z,100.00
2022-10-19T06:01:19.103Z,100.00
2022-10-19T06:03:47.170Z,100.00
2022-10-19T06:06:13.763Z,100.00
2022-10-19T06:08:40.368Z,100.00
2022-10-19T06:11:10.529Z,100.00
2022-10-19T06:13:38.108Z,100.00
2022-10-19T06:16:06.130Z,100.00
2022-10-19T06:18:33.481Z,100.00
2022-10-19T06:21:08.172Z,100.00
2022-10-19T06:23:35.675Z,100.00
2022-10-19T06:26:04.873Z,100.00
2022-10-19T06:28:31.401Z,100.00
2022-10-19T06:30:59.277Z,100.00
2022-10-19T06:33:27.141Z,100.00
2022-10-19T06:35:53.697Z,100.00
2022-10-19T06:38:20.164Z,100.00
2022-10-19T06:40:58.777Z,100.00
2022-10-19T06:43:25.317Z,100.00
2022-10-19T06:46:03.485Z,100.00
2022-10-19T06:48:29.864Z,100.00
2022-10-19T06:51:22.973Z,100.00
2022-10-19T06:53:52.933Z,100.00
2022-10-19T06:56:24.611Z,100.00
2022-10-19T06:58:51.259Z,100.00
2022-10-19T07:01:17.828Z,100.00
2022-10-19T07:03:44.740Z,100.00
2022-10-19T07:06:14.261Z,100.00
2022-10-19T07:08:42.284Z,100.00
2022-10-19T07:11:14.712Z,100.00
2022-10-19T07:13:41.204Z,100.00
2022-10-19T07:16:17.611Z,100.00
2022-10-19T07:18:49.847Z,100.00
2022-10-19T07:21:17.069Z,100.00
2022-10-19T07:23:47.041Z,100.00
2022-10-19T07:26:23.647Z,100.00
2022-10-19T07:28:51.035Z,100.00
2022-10-19T07:31:20.253Z,100.00
2022-10-19T07:33:47.948Z,100.00
2022-10-19T07:36:14.466Z,100.00
2022-10-19T07:38:41.119Z,100.00
2022-10-19T07:41:12.898Z,100.00
2022-10-19T07:43:40.514Z,100.00
2022-10-19T07:46:10.808Z,100.00
2022-10-19T07:48:37.339Z,100.00
2022-10-19T07:51:06.710Z,100.00
2022-10-19T07:53:34.201Z,100.00
2022-10-19T07:56:09.073Z,100.00
2022-10-19T07:58:36.583Z,100.00
2022-10-19T08:01:08.590Z,100.00
2022-10-19T08:06:22.239Z,100.00
2022-10-19T08:08:49.274Z,100.00
2022-10-19T08:11:28.375Z,100.00
2022-10-19T08:13:55.731Z,100.00
2022-10-19T08:16:44.163Z,100.00
2022-10-19T08:19:13.642Z,100.00
2022-10-19T08:21:45.867Z,100.00
2022-10-19T08:24:14.620Z,100.00
2022-10-19T08:26:41.671Z,100.00
2022-10-19T08:29:12.186Z,100.00
2022-10-19T08:31:39.637Z,100.00
2022-10-19T08:34:06.296Z,100.00
2022-10-19T08:36:35.479Z,100.00
2022-10-19T08:39:04.850Z,100.00
2022-10-19T08:41:40.250Z,100.00
2022-10-19T08:44:24.852Z,100.00
2022-10-19T08:47:01.466Z,100.00
2022-10-19T08:49:31.683Z,100.00
2022-10-19T08:52:01.451Z,100.00
2022-10-19T08:54:38.031Z,100.00
2022-10-19T08:57:24.267Z,100.00
2022-10-19T09:00:12.555Z,100.00
2022-10-19T09:02:51.257Z,100.00
2022-10-19T09:05:44.027Z,100.00
2022-10-19T09:08:16.712Z,100.00
2022-10-19T09:10:47.641Z,100.00
2022-10-19T09:13:22.970Z,100.00
2022-10-19T09:15:50.792Z,100.00
2022-10-19T09:18:23.884Z,100.00
2022-10-19T09:20:57.771Z,100.00
2022-10-19T09:23:55.360Z,100.00
2022-10-19T09:26:27.640Z,100.00
2022-10-19T09:29:12.300Z,100.00
2022-10-19T09:31:40.776Z,100.00
2022-10-19T09:34:33.123Z,100.00
2022-10-19T09:37:00.486Z,100.00
2022-10-19T09:39:29.899Z,100.00
2022-10-19T09:41:56.315Z,100.00
2022-10-19T09:44:24.030Z,100.00
2022-10-19T09:46:57.780Z,100.00
2022-10-19T09:49:48.119Z,100.00
2022-10-19T09:52:37.951Z,100.00
2022-10-19T09:55:13.607Z,100.00
2022-10-19T09:57:48.033Z,100.00
2022-10-19T10:00:19.200Z,100.00
2022-10-19T10:02:53.777Z,100.00
2022-10-19T10:05:22.530Z,100.00
2022-10-19T10:07:55.108Z,100.00
2022-10-19T10:10:30.454Z,100.00
2022-10-19T10:13:00.935Z,100.00
2022-10-19T10:15:35.269Z,100.00
2022-10-19T10:18:02.750Z,100.00
2022-10-19T10:20:32.467Z,100.00
2022-10-19T10:23:02.792Z,100.00
2022-10-19T10:25:36.101Z,100.00
2022-10-19T10:28:16.938Z,100.00
2022-10-19T10:30:45.669Z,100.00
2022-10-19T10:33:33.217Z,100.00
2022-10-19T10:36:09.781Z,97.50
2022-10-19T10:38:40.822Z,97.00
2022-10-19T10:41:20.107Z,93.35
2022-10-19T10:46:28.913Z,94.64
2022-10-19T10:49:02.272Z,93.38
2022-10-19T10:51:38.211Z,90.55
2022-10-19T10:54:26.363Z,88.69
2022-10-19T10:57:13.839Z,82.83
2022-10-19T11:00:12.047Z,83.66
2022-10-19T11:02:54.348Z,82.67
2022-10-19T11:05:31.119Z,79.80
2022-10-19T11:08:12.798Z,80.70
2022-10-19T11:10:54.340Z,75.69
2022-10-19T11:13:26.132Z,71.00
2022-10-19T11:15:58.913Z,70.92
2022-10-19T11:18:27.722Z,71.18
2022-10-19T11:21:09.613Z,66.64
2022-10-19T11:23:55.070Z,67.57
2022-10-19T11:26:33.631Z,66.34
2022-10-19T11:29:27.584Z,62.41
2022-10-19T11:31:55.624Z,62.58
2022-10-19T11:34:31.203Z,61.40
2022-10-19T11:37:22.434Z,61.41
2022-10-19T11:40:22.167Z,61.03
2022-10-19T11:43:10.363Z,61.36
2022-10-19T11:45:45.691Z,59.22
2022-10-19T11:48:23.439Z,61.21
2022-10-19T11:51:20.946Z,60.64
2022-10-19T11:53:57.923Z,60.74
2022-10-19T11:56:51.505Z,58.74
2022-10-19T11:59:46.652Z,56.55
2022-10-19T12:03:01.574Z,54.08
2022-10-19T12:06:09.288Z,56.12
2022-10-19T12:09:08.217Z,54.96
2022-10-19T12:12:10.050Z,52.77
2022-10-19T12:14:40.484Z,53.50
2022-10-19T12:17:15.644Z,53.64
2022-10-19T12:19:47.744Z,52.23
2022-10-19T12:22:19.547Z,52.15
2022-10-19T12:24:46.487Z,50.95
2022-10-19T12:27:16.271Z,51.57
2022-10-19T12:29:46.629Z,49.27
2022-10-19T12:32:17.383Z,45.67
2022-10-19T12:34:56.270Z,44.90
2022-10-19T12:37:34.990Z,46.00
2022-10-19T12:40:27.638Z,43.83
2022-10-19T12:43:13.913Z,41.18
2022-10-19T12:46:00.583Z,38.96
2022-10-19T12:48:27.020Z,38.95
2022-10-19T12:50:53.877Z,39.34
2022-10-19T12:53:31.191Z,35.69
2022-10-19T12:56:06.722Z,37.14
2022-10-19T12:59:01.421Z,35.29
2022-10-19T13:01:44.195Z,33.27
2022-10-19T13:04:19.170Z,35.56
2022-10-19T13:06:51.817Z,33.22
2022-10-19T13:09:26.391Z,34.64
2022-10-19T13:12:14.110Z,33.49
2022-10-19T13:14:54.320Z,33.19
2022-10-19T13:17:49.067Z,32.39
2022-10-19T13:20:15.493Z,33.89
2022-10-19T13:22:44.948Z,32.49
2022-10-19T13:25:27.759Z,32.50
2022-10-19T13:28:01.602Z,32.37
2022-10-19T13:30:38.147Z,30.41
2022-10-19T13:33:28.445Z,29.66
2022-10-19T13:36:00.877Z,30.10
2022-10-19T13:38:33.520Z,30.92
2022-10-19T13:41:18.141Z,29.76
2022-10-19T13:44:00.680Z,29.92
2022-10-19T13:46:30.038Z,29.56
2022-10-19T13:49:27.741Z,29.82
2022-10-19T13:52:27.766Z,29.27
2022-10-19T13:54:54.733Z,30.93
2022-10-19T13:57:48.931Z,30.15
2022-10-19T14:00:19.949Z,30.51
2022-10-19T14:03:06.681Z,30.15
2022-10-19T14:05:47.543Z,30.91
2022-10-19T14:08:33.405Z,30.52
2022-10-19T14:11:11.448Z,31.06
2022-10-19T14:13:38.158Z,31.71
2022-10-19T14:16:04.859Z,32.96
2022-10-19T14:18:36.391Z,33.34
2022-10-19T14:21:08.286Z,34.16
2022-10-19T14:23:42.652Z,35.01
2022-10-19T14:26:20.247Z,36.83
2022-10-19T14:28:53.373Z,38.47
2022-10-19T14:31:25.622Z,39.47
2022-10-19T14:33:56.187Z,40.81
2022-10-19T14:36:27.565Z,41.59
2022-10-19T14:38:55.680Z,42.22
2022-10-19T14:41:28.127Z,44.22
2022-10-19T14:43:59.092Z,44.98
2022-10-19T14:46:29.271Z,46.04
2022-10-19T14:49:10.273Z,47.33
2022-10-19T14:51:50.735Z,48.57
2022-10-19T14:54:30.416Z,50.09
2022-10-19T14:57:06.487Z,50.65
2022-10-19T14:59:47.263Z,52.33
2022-10-19T15:02:16.388Z,52.32
2022-10-19T15:04:42.975Z,53.10
2022-10-19T15:07:39.539Z,54.91
2022-10-19T15:10:22.998Z,55.67
2022-10-19T15:12:51.514Z,56.78
2022-10-19T15:15:24.616Z,58.36
2022-10-19T15:17:55.695Z,59.35
2022-10-19T15:20:54.956Z,63.57
2022-10-19T15:23:41.755Z,64.13
2022-10-19T15:26:17.519Z,65.15
2022-10-19T15:28:44.926Z,65.77
2022-10-19T15:31:23.695Z,67.09
2022-10-19T15:33:53.070Z,67.82
2022-10-19T15:36:21.578Z,68.96
2022-10-19T15:39:17.786Z,71.14
2022-10-19T15:41:51.459Z,70.80
2022-10-19T15:44:41.958Z,73.22
2022-10-19T15:47:14.464Z,72.46
2022-10-19T15:49:40.846Z,73.25
2022-10-19T15:52:27.913Z,74.08
2022-10-19T15:54:56.835Z,74.62
2022-10-19T15:57:32.344Z,75.16
2022-10-19T16:00:02.555Z,76.00
2022-10-19T16:02:29.064Z,78.02
2022-10-19T16:04:55.597Z,78.09
2022-10-19T16:07:31.746Z,78.66
2022-10-19T16:09:59.065Z,79.65
2022-10-19T16:12:26.703Z,78.43
2022-10-19T16:14:54.280Z,80.57
2022-10-19T16:17:20.722Z,80.48
2022-10-19T16:19:47.407Z,82.18
2022-10-19T16:22:14.848Z,84.84
2022-10-19T16:24:41.895Z,86.49
2022-10-19T16:27:09.272Z,86.13
2022-10-19T16:29:35.736Z,87.62
2022-10-19T16:32:02.224Z,88.01
2022-10-19T16:34:28.743Z,87.81
2022-10-19T16:36:55.274Z,88.97
2022-10-19T16:39:21.910Z,89.69
2022-10-19T16:41:48.524Z,88.86
2022-10-19T16:44:15.852Z,92.16
2022-10-19T16:46:42.395Z,91.17
2022-10-19T16:49:08.915Z,92.80
2022-10-19T16:51:42.315Z,93.04
2022-10-19T16:54:11.408Z,93.55
2022-10-19T16:56:44.714Z,95.50
2022-10-19T16:59:14.735Z,96.19
2022-10-19T17:01:44.117Z,96.32
2022-10-19T17:04:11.582Z,96.74
2022-10-19T17:06:38.472Z,98.74
2022-10-19T17:11:52.395Z,99.78
2022-10-19T17:14:19.207Z,99.53
2022-10-19T17:16:45.856Z,100.00
2022-10-19T17:19:12.514Z,100.00
2022-10-19T17:21:39.390Z,99.79
2022-10-19T17:24:08.229Z,100.00
2022-10-19T17:26:39.868Z,100.00
2022-10-19T17:29:07.418Z,100.00
2022-10-19T17:31:34.486Z,100.00
2022-10-19T17:34:01.919Z,100.00
2022-10-19T17:36:31.291Z,100.00
2022-10-19T17:39:00.800Z,100.00
2022-10-19T17:41:28.558Z,100.00
2022-10-19T17:43:56.860Z,100.00
2022-10-19T17:46:26.332Z,100.00
2022-10-19T17:48:53.361Z,100.00
2022-10-19T17:51:29.310Z,100.00
2022-10-19T17:53:58.118Z,100.00
2022-10-19T17:56:25.257Z,100.00
2022-10-19T17:58:52.161Z,100.00
2022-10-19T18:01:20.866Z,100.00
2022-10-19T18:03:47.633Z,100.00
2022-10-19T18:06:18.322Z,100.00
2022-10-19T18:08:47.848Z,100.00
2022-10-19T18:11:19.929Z,100.00
2022-10-19T18:13:47.356Z,100.00
2022-10-19T18:16:27.390Z,100.00
2022-10-19T18:18:56.342Z,100.00
2022-10-19T18:21:26.312Z,100.00
2022-10-19T18:23:55.210Z,100.00
2022-10-19T18:26:24.377Z,100.00
2022-10-19T18:28:52.884Z,100.00
2022-10-19T18:31:22.394Z,100.00
2022-10-19T18:33:55.165Z,100.00
2022-10-19T18:36:21.849Z,100.00
2022-10-19T18:38:52.664Z,100.00
2022-10-19T18:41:19.592Z,100.00
2022-10-19T18:43:52.286Z,100.00
2022-10-19T18:46:20.945Z,100.00
2022-10-19T18:48:47.740Z,100.00
2022-10-19T18:51:15.538Z,100.00
2022-10-19T18:53:42.977Z,100.00
2022-10-19T18:56:11.781Z,100.00
2022-10-19T18:58:38.643Z,100.00
2022-10-19T19:01:16.453Z,100.00
2022-10-19T19:03:45.907Z,100.00
2022-10-19T19:06:15.456Z,100.00
2022-10-19T19:08:42.048Z,100.00
2022-10-19T19:11:31.809Z,100.00
2022-10-19T19:14:13.958Z,100.00
2022-10-19T19:16:42.059Z,100.00
2022-10-19T19:19:10.528Z,100.00
2022-10-19T19:21:38.423Z,100.00
2022-10-19T19:24:06.523Z,100.00
2022-10-19T19:26:38.135Z,100.00
2022-10-19T19:29:05.068Z,100.00
2022-10-19T19:31:31.770Z,100.00
2022-10-19T19:34:02.280Z,100.00
2022-10-19T19:36:29.285Z,100.00
2022-10-19T19:38:56.828Z,100.00
2022-10-19T19:41:23.363Z,100.00
2022-10-19T19:43:49.895Z,100.00
2022-10-19T19:46:19.049Z,100.00
2022-10-19T19:48:47.609Z,100.00
2022-10-19T19:51:19.558Z,100.00
2022-10-19T19:53:47.657Z,100.00
2022-10-19T19:56:16.170Z,100.00
2022-10-19T19:58:44.642Z,100.00
2022-10-19T20:01:21.891Z,100.00
2022-10-19T20:03:48.318Z,100.00
2022-10-19T20:06:18.684Z,100.00
2022-10-19T20:08:47.436Z,100.00
2022-10-19T20:11:17.395Z,100.00
2022-10-19T20:13:45.646Z,100.00
2022-10-19T20:16:18.076Z,100.00
2022-10-19T20:18:45.917Z,100.00
2022-10-19T20:21:23.291Z,100.00
2022-10-19T20:23:50.199Z,100.00
2022-10-19T20:26:24.489Z,100.00
2022-10-19T20:28:51.641Z,100.00
2022-10-19T20:31:18.736Z,100.00
2022-10-19T20:33:47.358Z,100.00
2022-10-19T20:36:38.737Z,100.00
2022-10-19T20:39:05.795Z,100.00
2022-10-19T20:41:35.494Z,100.00
2022-10-19T20:44:01.979Z,100.00
2022-10-19T20:46:30.021Z,100.00
2022-10-19T20:48:59.574Z,100.00
2022-10-19T20:51:31.675Z,100.00
2022-10-19T20:54:00.499Z,100.00
2022-10-19T20:56:30.115Z,100.00
2022-10-19T20:59:04.907Z,100.00
2022-10-19T21:01:33.613Z,100.00
2022-10-19T21:04:03.237Z,100.00
2022-10-19T21:06:32.325Z,100.00
2022-10-19T21:08:59.863Z,100.00
2022-10-19T21:11:28.670Z,100.00
2022-10-19T21:14:00.392Z,100.00
2022-10-19T21:16:29.923Z,100.00
2022-10-19T21:18:56.755Z,100.00
2022-10-19T21:21:28.902Z,100.00
2022-10-19T21:23:58.407Z,100.00
2022-10-19T21:26:26.076Z,100.00
2022-10-19T21:28:53.280Z,100.00
2022-10-19T21:31:21.119Z,100.00
2022-10-19T21:33:47.721Z,100.00
2022-10-19T21:36:15.192Z,100.00
2022-10-19T21:38:42.448Z,100.00
2022-10-19T21:41:13.864Z,100.00
2022-10-19T21:43:40.600Z,100.00
2022-10-19T21:46:10.887Z,100.00
2022-10-19T21:48:38.064Z,100.00
2022-10-19T21:51:22.647Z,100.00
2022-10-19T21:53:49.123Z,100.00
2022-10-19T21:56:16.694Z,100.00
2022-10-19T21:58:48.164Z,100.00
2022-10-19T22:01:15.768Z,100.00
2022-10-19T22:03:42.292Z,100.00
2022-10-19T22:06:08.805Z,100.00
2022-10-19T22:08:35.258Z,100.00
2022-10-19T22:11:10.248Z,100.00
2022-10-19T22:13:37.432Z,100.00
2022-10-19T22:16:08.499Z,100.00
2022-10-19T22:18:36.156Z,100.00
2022-10-19T22:21:07.873Z,100.00
2022-10-19T22:23:34.390Z,100.00
2022-10-19T22:26:01.110Z,100.00
2022-10-19T22:28:28.118Z,100.00
2022-10-19T22:30:57.776Z,100.00
2022-10-19T22:33:25.439Z,100.00
2022-10-19T22:36:00.053Z,100.00
2022-10-19T22:38:28.482Z,100.00
2022-10-19T22:40:54.979Z,100.00
2022-10-19T22:43:21.442Z,100.00
2022-10-19T22:45:49.582Z,100.00
2022-10-19T22:48:17.048Z,100.00
2022-10-19T22:50:44.422Z,100.00
2022-10-19T22:53:11.609Z,100.00
2022-10-19T22:55:38.529Z,100.00
2022-10-19T22:58:06.232Z,100.00
2022-10-19T23:00:32.884Z,100.00
2022-10-19T23:02:59.398Z,100.00
2022-10-19T23:05:25.832Z,100.00
2022-10-19T23:07:52.314Z,100.00
2022-10-19T23:10:18.982Z,100.00
2022-10-19T23:12:50.401Z,100.00
2022-10-19T23:15:17.414Z,100.00
2022-10-19T23:17:43.829Z,100.00
2022-10-19T23:20:11.221Z,100.00
2022-10-19T23:22:37.705Z,100.00
2022-10-19T23:25:04.842Z,100.00
2022-10-19T23:27:31.232Z,100.00
2022-10-19T23:29:57.644Z,100.00
2022-10-19T23:32:24.088Z,100.00
2022-10-19T23:34:50.476Z,100.00
2022-10-19T23:37:16.965Z,100.00
2022-10-19T23:39:43.646Z,100.00
2022-10-19T23:42:10.067Z,100.00
2022-10-19T23:44:36.545Z,100.00
2022-10-19T23:47:02.943Z,100.00
2022-10-19T23:49:29.360Z,100.00
2022-10-19T23:51:55.772Z,100.00
2022-10-19T23:54:22.178Z,100.00
2022-10-19T23:56:48.623Z,100.00
2022-10-19T23:59:15.005Z,100.00
